createdAt,value
2023-01-24T00:05:50.507Z,46.36
2023-01-24T00:15:56.297Z,46.32
2023-01-24T00:26:01.502Z,46.28
2023-01-24T00:36:06.915Z,46.17
2023-01-24T00:46:12.119Z,46.14
2023-01-24T00:56:18.290Z,46.06
2023-01-24T01:06:23.753Z,46.08
2023-01-24T01:16:29.234Z,46.03
2023-01-24T01:26:34.225Z,45.96
2023-01-24T01:36:39.497Z,46.01
2023-01-24T01:46:44.646Z,45.95
2023-01-24T01:56:50.275Z,45.93
2023-01-24T02:06:55.806Z,45.95
2023-01-24T02:17:01.540Z,45.97
2023-01-24T02:27:06.775Z,45.92
2023-01-24T02:37:12.318Z,45.89
2023-01-24T02:47:17.755Z,45.96
2023-01-24T02:57:23.309Z,45.97
2023-01-24T03:07:28.410Z,45.97
2023-01-24T03:17:34.235Z,45.97
2023-01-24T03:27:39.353Z,46.02
2023-01-24T03:37:44.536Z,45.99
2023-01-24T03:47:50.088Z,45.92
2023-01-24T03:57:55.638Z,45.97
2023-01-24T04:08:00.987Z,46.01
2023-01-24T04:18:06.271Z,46.04
2023-01-24T04:28:11.860Z,46.02
2023-01-24T04:38:17.243Z,46.01
2023-01-24T04:48:22.564Z,46.05
2023-01-24T04:58:27.855Z,46.01
2023-01-24T05:08:32.992Z,45.97
2023-01-24T05:18:38.316Z,45.94
2023-01-24T05:28:43.656Z,45.96
2023-01-24T05:38:48.876Z,45.92
2023-01-24T05:48:54.273Z,45.96
2023-01-24T05:58:59.495Z,45.96
2023-01-24T06:09:04.949Z,46.09
2023-01-24T06:19:10.909Z,46.14
2023-01-24T06:29:15.927Z,46.07
2023-01-24T06:39:21.043Z,45.98
2023-01-24T06:49:26.464Z,45.91
2023-01-24T06:59:31.654Z,45.86
2023-01-24T07:09:37.029Z,45.81
2023-01-24T07:19:42.554Z,45.80
2023-01-24T07:29:48.141Z,46.26
2023-01-24T07:39:53.571Z,47.16
2023-01-24T07:49:58.798Z,47.97
2023-01-24T08:00:04.405Z,48.10
2023-01-24T08:10:09.800Z,47.88
2023-01-24T08:20:14.815Z,47.72
2023-01-24T08:30:20.005Z,47.79
2023-01-24T08:40:25.933Z,47.82
2023-01-24T08:50:31.452Z,47.93
2023-01-24T09:00:36.602Z,47.79
2023-01-24T09:10:41.932Z,47.74
2023-01-24T09:20:47.047Z,47.75
2023-01-24T09:30:52.701Z,47.70
2023-01-24T09:40:58.211Z,47.67
2023-01-24T09:51:03.786Z,47.64
2023-01-24T10:01:09.149Z,47.59
2023-01-24T10:11:14.126Z,47.50
2023-01-24T10:21:19.489Z,47.48
2023-01-24T10:31:24.792Z,47.38
2023-01-24T10:41:30.354Z,47.33
2023-01-24T10:51:35.883Z,47.34
2023-01-24T11:01:41.135Z,47.26
2023-01-24T11:11:45.918Z,47.25
2023-01-24T11:21:50.705Z,47.25
2023-01-24T11:31:55.849Z,47.24
2023-01-24T11:42:01.264Z,47.21
2023-01-24T11:52:06.532Z,47.17
2023-01-24T12:02:11.733Z,47.16
2023-01-24T12:12:17.065Z,47.12
2023-01-24T12:22:22.499Z,47.12
2023-01-24T12:32:27.975Z,47.08
2023-01-24T12:42:33.318Z,47.06
2023-01-24T12:52:38.519Z,46.99
2023-01-24T13:02:43.491Z,47.01
2023-01-24T13:12:48.907Z,46.95
2023-01-24T13:22:54.584Z,46.78
2023-01-24T13:32:59.869Z,46.79
2023-01-24T13:43:05.020Z,46.88
2023-01-24T13:53:10.292Z,46.89
2023-01-24T14:03:15.731Z,46.87
2023-01-24T14:13:20.780Z,46.78
2023-01-24T14:23:25.947Z,46.75
2023-01-24T14:33:31.102Z,46.70
2023-01-24T14:43:36.202Z,46.52
2023-01-24T14:53:41.617Z,46.44
2023-01-24T15:03:47.069Z,46.37
2023-01-24T15:13:52.316Z,46.17
2023-01-24T15:23:57.860Z,46.14
2023-01-24T15:34:03.420Z,46.13
2023-01-24T15:44:08.810Z,46.17
2023-01-24T15:54:14.193Z,46.13
2023-01-24T16:04:19.173Z,46.05
2023-01-24T16:14:24.840Z,46.03
2023-01-24T16:24:30.350Z,46.01
2023-01-24T16:34:35.917Z,46.01
2023-01-24T16:44:41.009Z,46.03
2023-01-24T16:54:46.215Z,45.89
2023-01-24T17:04:51.716Z,45.95
2023-01-24T17:14:57.201Z,46.05
2023-01-24T17:25:02.565Z,45.98
2023-01-24T17:35:08.035Z,45.86
2023-01-24T17:45:13.447Z,45.70
2023-01-24T17:55:18.709Z,45.69
2023-01-24T18:05:23.934Z,45.56
2023-01-24T18:15:29.240Z,45.47
2023-01-24T18:25:34.412Z,45.57
2023-01-24T18:35:40.110Z,45.32
2023-01-24T18:45:45.436Z,45.49
2023-01-24T18:55:50.816Z,45.44
2023-01-24T19:05:56.784Z,45.57
2023-01-24T19:16:03.150Z,45.53
2023-01-24T19:26:08.961Z,45.46
2023-01-24T19:36:14.322Z,45.44
2023-01-24T19:46:19.757Z,45.17
2023-01-24T19:56:25.390Z,44.91
2023-01-24T20:06:30.451Z,44.84
2023-01-24T20:16:36.203Z,44.80
2023-01-24T20:26:41.511Z,44.85
2023-01-24T20:36:46.889Z,45.20
2023-01-24T20:46:52.029Z,45.17
2023-01-24T20:56:57.483Z,45.11
2023-01-24T21:07:02.959Z,45.03
2023-01-24T21:17:08.250Z,44.99
2023-01-24T21:27:13.428Z,45.10
2023-01-24T21:37:28.045Z,44.82
2023-01-24T21:47:29.880Z,44.76
2023-01-24T21:57:35.364Z,44.67
2023-01-24T22:07:40.696Z,44.64
2023-01-24T22:17:46.149Z,44.69
2023-01-24T22:27:51.514Z,44.63
2023-01-24T22:37:56.598Z,44.73
2023-01-24T22:48:02.246Z,44.84
2023-01-24T22:58:07.692Z,44.72
2023-01-24T23:08:13.104Z,44.67
2023-01-24T23:18:18.454Z,44.52
2023-01-24T23:28:23.716Z,44.55
2023-01-24T23:38:28.920Z,44.62
2023-01-24T23:48:34.217Z,44.64
2023-01-24T23:58:39.715Z,44.69
